createdAt,value
2023-04-11T00:00:58.151Z,14.13
2023-04-11T00:03:26.067Z,16.53
2023-04-11T00:05:53.814Z,18.56
2023-04-11T00:08:22.840Z,17.40
2023-04-11T00:10:50.735Z,14.97
2023-04-11T00:13:18.455Z,15.92
2023-04-11T00:15:46.684Z,16.11
2023-04-11T00:18:14.406Z,16.46
2023-04-11T00:20:41.946Z,18.29
2023-04-11T00:23:09.619Z,16.44
2023-04-11T00:25:38.868Z,16.07
2023-04-11T00:28:06.580Z,22.51
2023-04-11T00:30:34.222Z,18.09
2023-04-11T00:33:01.944Z,18.78
2023-04-11T00:35:29.681Z,22.13
2023-04-11T00:37:57.318Z,19.16
2023-04-11T00:40:24.945Z,18.58
2023-04-11T00:42:56.465Z,25.74
2023-04-11T00:45:24.578Z,21.67
2023-04-11T00:47:53.173Z,25.72
2023-04-11T00:50:21.763Z,29.14
2023-04-11T00:52:51.644Z,23.83
2023-04-11T00:55:19.337Z,23.96
2023-04-11T00:57:47.678Z,19.08
2023-04-11T01:00:17.264Z,25.20
2023-04-11T01:02:45.091Z,22.16
2023-04-11T01:05:14.863Z,20.83
2023-04-11T01:07:45.968Z,20.57
2023-04-11T01:10:16.397Z,26.73
2023-04-11T01:12:46.568Z,16.72
2023-04-11T01:15:16.807Z,14.07
2023-04-11T01:17:44.611Z,18.97
2023-04-11T01:20:12.856Z,19.08
2023-04-11T01:22:42.723Z,18.24
2023-04-11T01:25:14.545Z,17.25
2023-04-11T01:27:42.843Z,28.23
2023-04-11T01:30:12.888Z,22.33
2023-04-11T01:32:40.645Z,19.66
2023-04-11T01:35:10.771Z,25.70
2023-04-11T01:37:39.246Z,40.07
2023-04-11T01:40:08.433Z,91.13
2023-04-11T01:42:38.897Z,22.98
2023-04-11T01:45:09.544Z,26.90
2023-04-11T01:47:37.442Z,29.79
2023-04-11T01:50:07.039Z,25.58
2023-04-11T01:52:34.875Z,21.96
2023-04-11T01:55:02.634Z,22.32
2023-04-11T01:57:30.601Z,22.96
2023-04-11T01:59:59.608Z,27.95
2023-04-11T02:02:27.364Z,24.78
2023-04-11T02:04:55.344Z,26.25
2023-04-11T02:07:22.999Z,26.09
2023-04-11T02:09:50.674Z,20.57
2023-04-11T02:12:18.330Z,64.80
2023-04-11T02:14:46.136Z,31.25
2023-04-11T02:17:15.605Z,27.51
2023-04-11T02:20:20.621Z,26.83
2023-04-11T02:22:48.188Z,29.71
2023-04-11T02:25:16.054Z,27.81
2023-04-11T02:27:43.666Z,33.30
2023-04-11T02:30:11.580Z,32.03
2023-04-11T02:32:40.563Z,31.66
2023-04-11T02:35:08.866Z,28.26
2023-04-11T02:37:36.507Z,34.14
2023-04-11T02:40:04.796Z,33.04
2023-04-11T02:42:32.418Z,43.01
2023-04-11T02:45:00.538Z,45.14
2023-04-11T02:47:28.494Z,30.13
2023-04-11T02:49:57.589Z,34.89
2023-04-11T02:52:25.426Z,28.25
2023-04-11T02:54:53.043Z,32.21
2023-04-11T02:57:20.744Z,31.67
2023-04-11T02:59:48.418Z,41.16
2023-04-11T03:02:16.263Z,39.74
2023-04-11T03:04:43.951Z,40.60
2023-04-11T03:07:12.900Z,40.91
2023-04-11T03:09:40.598Z,40.75
2023-04-11T03:12:08.282Z,39.49
2023-04-11T03:14:35.949Z,40.02
2023-04-11T03:17:03.600Z,39.32
2023-04-11T03:19:31.321Z,46.19
2023-04-11T03:22:00.451Z,43.15
2023-04-11T03:24:29.385Z,41.70
2023-04-11T03:26:57.177Z,43.32
2023-04-11T03:29:24.802Z,40.84
2023-04-11T03:31:52.456Z,35.82
2023-04-11T03:34:20.027Z,43.09
2023-04-11T03:36:47.702Z,41.80
2023-04-11T03:39:15.352Z,44.10
2023-04-11T03:41:44.340Z,42.66
2023-04-11T03:44:11.940Z,51.78
2023-04-11T03:46:39.585Z,60.34
2023-04-11T03:49:08.601Z,71.38
2023-04-11T03:51:37.690Z,62.76
2023-04-11T03:54:05.594Z,69.12
2023-04-11T03:56:33.182Z,61.32
2023-04-11T03:59:02.287Z,44.06
2023-04-11T04:01:29.993Z,45.64
2023-04-11T04:03:58.073Z,64.26
2023-04-11T04:06:26.174Z,55.12
2023-04-11T04:08:54.163Z,78.37
2023-04-11T04:11:21.772Z,63.71
2023-04-11T04:13:49.437Z,49.59
2023-04-11T04:16:18.406Z,56.66
2023-04-11T04:18:46.058Z,55.17
2023-04-11T04:21:14.078Z,52.33
2023-04-11T04:23:41.723Z,46.29
2023-04-11T04:26:09.404Z,72.14
2023-04-11T04:28:37.032Z,74.66
2023-04-11T04:31:05.236Z,55.19
2023-04-11T04:33:34.244Z,48.94
2023-04-11T04:36:01.917Z,46.45
2023-04-11T04:38:29.825Z,66.46
2023-04-11T04:40:57.548Z,141.59
2023-04-11T04:43:25.289Z,60.64
2023-04-11T04:45:52.932Z,63.93
2023-04-11T04:48:20.601Z,62.73
2023-04-11T04:50:49.593Z,73.32
2023-04-11T04:53:17.321Z,76.28
2023-04-11T04:55:47.293Z,97.95
2023-04-11T04:58:15.094Z,79.16
2023-04-11T05:00:42.813Z,89.57
2023-04-11T05:03:10.690Z,106.25
2023-04-11T05:05:38.460Z,82.11
2023-04-11T05:08:07.560Z,101.56
2023-04-11T05:10:36.192Z,120.41
2023-04-11T05:13:03.848Z,89.64
2023-04-11T05:15:31.439Z,100.67
2023-04-11T05:17:59.080Z,71.24
2023-04-11T05:20:27.239Z,63.25
2023-04-11T05:22:54.920Z,69.04
2023-04-11T05:25:24.357Z,139.93
2023-04-11T05:27:52.029Z,87.44
2023-04-11T05:30:19.792Z,121.34
2023-04-11T05:32:47.842Z,133.58
2023-04-11T05:35:15.591Z,93.34
2023-04-11T05:37:43.319Z,104.49
2023-04-11T05:40:12.808Z,83.54
2023-04-11T05:42:42.280Z,131.77
2023-04-11T05:45:10.655Z,91.22
2023-04-11T05:47:38.326Z,51.26
2023-04-11T05:50:07.105Z,58.09
2023-04-11T05:52:35.138Z,78.18
2023-04-11T05:55:02.826Z,74.39
2023-04-11T05:57:30.539Z,96.72
2023-04-11T05:59:59.568Z,72.15
2023-04-11T06:02:29.238Z,219.59
2023-04-11T06:04:57.323Z,58.19
2023-04-11T06:07:25.174Z,57.86
2023-04-11T06:09:52.858Z,77.42
2023-04-11T06:12:20.734Z,82.38
2023-04-11T06:14:48.367Z,74.36
2023-04-11T06:17:17.461Z,62.45
2023-04-11T06:19:45.177Z,72.43
2023-04-11T06:22:13.107Z,70.46
2023-04-11T06:24:41.357Z,77.31
2023-04-11T06:27:09.195Z,83.34
2023-04-11T06:29:37.889Z,74.32
2023-04-11T06:32:06.634Z,67.02
2023-04-11T06:34:37.966Z,66.91
2023-04-11T06:37:06.244Z,59.89
2023-04-11T06:39:34.277Z,86.30
2023-04-11T06:42:03.668Z,74.79
2023-04-11T06:44:31.445Z,87.12
2023-04-11T06:46:59.463Z,78.70
2023-04-11T06:49:28.504Z,76.73
2023-04-11T06:51:58.068Z,59.83
2023-04-11T06:54:25.740Z,95.11
2023-04-11T06:56:53.595Z,113.23
2023-04-11T06:59:21.329Z,74.30
2023-04-11T07:01:50.251Z,77.59
2023-04-11T07:04:19.157Z,99.52
2023-04-11T07:06:47.018Z,110.61
2023-04-11T07:09:17.207Z,113.25
2023-04-11T07:11:46.313Z,129.68
2023-04-11T07:14:14.058Z,55.29
2023-04-11T07:16:41.766Z,49.06
2023-04-11T07:19:09.616Z,45.10
2023-04-11T07:21:37.276Z,39.47
2023-04-11T07:24:05.364Z,44.00
2023-04-11T07:26:34.682Z,57.81
2023-04-11T07:29:02.340Z,38.68
2023-04-11T07:31:30.180Z,45.18
2023-04-11T07:33:58.202Z,32.44
2023-04-11T07:36:26.118Z,50.66
2023-04-11T07:38:53.728Z,62.15
2023-04-11T07:41:21.348Z,30.51
2023-04-11T07:43:51.782Z,28.17
2023-04-11T07:46:19.574Z,28.34
2023-04-11T07:48:47.304Z,36.03
2023-04-11T07:51:14.993Z,32.62
2023-04-11T07:53:43.114Z,159.41
2023-04-11T07:56:11.074Z,26.04
2023-04-11T07:58:38.831Z,29.74
2023-04-11T08:01:19.890Z,19.51
2023-04-11T08:03:47.712Z,26.88
2023-04-11T08:06:15.510Z,48.02
2023-04-11T08:08:43.209Z,37.79
2023-04-11T08:11:11.186Z,33.23
2023-04-11T08:13:38.947Z,37.30
2023-04-11T08:16:10.154Z,33.56
2023-04-11T08:18:37.831Z,28.21
2023-04-11T08:21:06.145Z,40.51
2023-04-11T08:23:33.763Z,43.66
2023-04-11T08:26:01.624Z,38.46
2023-04-11T08:28:29.288Z,41.92
2023-04-11T08:30:56.947Z,37.54
2023-04-11T08:33:25.976Z,389.08
2023-04-11T08:35:55.988Z,33.26
2023-04-11T08:38:24.684Z,38.15
2023-04-11T08:40:52.610Z,34.52
2023-04-11T08:43:20.315Z,27.52
2023-04-11T08:45:50.147Z,32.14
2023-04-11T08:48:17.810Z,32.21
2023-04-11T08:50:46.725Z,31.52
2023-04-11T08:53:15.361Z,36.31
2023-04-11T08:55:47.722Z,33.66
2023-04-11T08:58:17.355Z,27.28
2023-04-11T09:00:45.268Z,98.21
2023-04-11T09:03:17.189Z,22.23
2023-04-11T09:05:46.886Z,23.40
2023-04-11T09:08:16.189Z,29.07
2023-04-11T09:10:46.109Z,30.81
2023-04-11T09:13:20.982Z,47.82
2023-04-11T09:16:02.895Z,29.20
2023-04-11T09:18:35.069Z,32.44
2023-04-11T09:21:06.421Z,36.50
2023-04-11T09:23:34.498Z,29.04
2023-04-11T09:26:05.343Z,25.91
2023-04-11T09:28:43.885Z,31.07
2023-04-11T09:31:11.958Z,26.63
2023-04-11T09:33:39.759Z,30.30
2023-04-11T09:36:21.305Z,24.78
2023-04-11T09:38:49.118Z,30.80
2023-04-11T09:41:36.789Z,23.70
2023-04-11T09:44:04.523Z,34.74
2023-04-11T09:46:33.360Z,26.79
2023-04-11T09:49:01.218Z,23.37
2023-04-11T09:51:37.296Z,28.90
2023-04-11T09:54:06.119Z,25.97
2023-04-11T09:56:35.060Z,25.03
2023-04-11T09:59:04.559Z,28.16
2023-04-11T10:01:32.450Z,27.19
2023-04-11T10:04:02.183Z,27.23
2023-04-11T10:06:41.215Z,25.81
2023-04-11T10:09:13.690Z,27.69
2023-04-11T10:11:43.886Z,23.32
2023-04-11T10:14:41.967Z,24.16
2023-04-11T10:17:16.394Z,25.30
2023-04-11T10:19:46.724Z,24.70
2023-04-11T10:22:47.813Z,24.85
2023-04-11T10:25:19.361Z,28.88
2023-04-11T10:27:49.238Z,28.46
2023-04-11T10:30:17.412Z,27.18
2023-04-11T10:33:09.484Z,26.00
2023-04-11T10:35:56.618Z,32.64
2023-04-11T10:38:46.527Z,27.09
2023-04-11T10:41:29.067Z,45.41
2023-04-11T10:44:18.094Z,28.13
2023-04-11T10:46:48.436Z,30.99
2023-04-11T10:49:33.264Z,26.77
2023-04-11T10:52:17.737Z,26.80
2023-04-11T10:54:45.956Z,38.07
2023-04-11T10:57:15.833Z,24.12
2023-04-11T11:02:39.607Z,42.26
2023-04-11T11:05:18.745Z,23.43
2023-04-11T11:07:51.577Z,24.37
2023-04-11T11:10:42.949Z,41.65
2023-04-11T11:13:15.749Z,29.75
2023-04-11T11:15:48.304Z,19.80
2023-04-11T11:18:19.995Z,18.84
2023-04-11T11:20:54.622Z,77.95
2023-04-11T11:23:22.284Z,62.17
2023-04-11T11:25:54.398Z,22.56
2023-04-11T11:28:24.243Z,23.42
2023-04-11T11:30:55.118Z,19.31
2023-04-11T11:33:25.086Z,25.78
2023-04-11T11:35:56.884Z,24.71
2023-04-11T11:38:27.362Z,24.39
2023-04-11T11:40:55.859Z,23.70
2023-04-11T11:43:25.162Z,23.35
2023-04-11T11:46:08.748Z,23.23
2023-04-11T11:48:37.434Z,27.25
2023-04-11T11:51:05.736Z,23.74
2023-04-11T11:53:33.481Z,22.76
2023-04-11T11:56:12.462Z,23.22
2023-04-11T11:58:47.373Z,25.51
2023-04-11T12:01:16.199Z,24.18
2023-04-11T12:03:46.312Z,22.69
2023-04-11T12:06:14.232Z,69.78
2023-04-11T12:08:41.860Z,76.35
2023-04-11T12:11:14.058Z,31.06
2023-04-11T12:13:41.708Z,34.90
2023-04-11T12:16:10.915Z,42.34
2023-04-11T12:18:42.331Z,40.57
2023-04-11T12:21:09.960Z,19.36
2023-04-11T12:23:37.644Z,16.75
2023-04-11T12:26:05.780Z,18.76
2023-04-11T12:28:33.390Z,22.01
2023-04-11T12:31:01.284Z,19.70
2023-04-11T12:33:30.261Z,23.08
2023-04-11T12:35:58.111Z,40.37
2023-04-11T12:38:26.000Z,23.21
2023-04-11T12:41:04.294Z,48.80
2023-04-11T12:43:41.349Z,32.53
2023-04-11T12:46:11.414Z,29.02
2023-04-11T12:48:40.425Z,38.21
2023-04-11T12:51:08.302Z,43.27
2023-04-11T12:53:35.907Z,42.08
2023-04-11T12:56:03.895Z,29.95
2023-04-11T12:58:32.843Z,107.07
2023-04-11T13:01:00.728Z,35.09
2023-04-11T13:03:28.629Z,22.90
2023-04-11T13:05:57.864Z,58.80
2023-04-11T13:08:25.462Z,19.12
2023-04-11T13:10:54.113Z,17.93
2023-04-11T13:13:22.456Z,23.66
2023-04-11T13:15:50.123Z,15.48
2023-04-11T13:18:18.063Z,18.43
2023-04-11T13:20:47.273Z,22.14
2023-04-11T13:23:17.322Z,39.91
2023-04-11T13:25:45.485Z,24.33
2023-04-11T13:28:13.161Z,51.11
2023-04-11T13:30:42.319Z,27.43
2023-04-11T13:33:10.123Z,55.12
2023-04-11T13:35:38.207Z,38.27
2023-04-11T13:38:06.121Z,32.17
2023-04-11T13:40:35.109Z,45.62
2023-04-11T13:43:03.651Z,17.59
2023-04-11T13:45:31.611Z,16.89
2023-04-11T13:47:59.475Z,16.18
2023-04-11T13:50:27.286Z,9.66
2023-04-11T13:52:55.131Z,45.87
2023-04-11T13:55:22.784Z,17.60
2023-04-11T13:57:51.979Z,12.10
2023-04-11T14:00:21.164Z,11.06
2023-04-11T14:02:50.472Z,12.10
2023-04-11T14:05:20.030Z,23.28
2023-04-11T14:07:48.658Z,21.49
2023-04-11T14:10:16.712Z,16.83
2023-04-11T14:12:47.306Z,15.63
2023-04-11T14:15:21.744Z,36.76
2023-04-11T14:17:49.930Z,24.06
2023-04-11T14:20:17.880Z,23.91
2023-04-11T14:22:46.289Z,38.76
2023-04-11T14:25:14.438Z,13.92
2023-04-11T14:27:42.480Z,20.63
2023-04-11T14:30:12.428Z,17.42
2023-04-11T14:32:41.697Z,89.09
2023-04-11T14:35:10.022Z,14.20
2023-04-11T14:37:38.013Z,36.33
2023-04-11T14:40:07.353Z,34.50
2023-04-11T14:42:35.499Z,147.84
2023-04-11T14:45:04.805Z,14.41
2023-04-11T14:47:34.771Z,16.85
2023-04-11T14:50:04.253Z,11.95
2023-04-11T14:52:31.950Z,13.05
2023-04-11T14:54:59.677Z,17.82
2023-04-11T14:57:42.907Z,18.15
2023-04-11T15:00:14.474Z,18.06
2023-04-11T15:02:42.215Z,18.84
2023-04-11T15:05:13.550Z,17.17
2023-04-11T15:07:41.674Z,48.59
2023-04-11T15:10:10.056Z,14.85
2023-04-11T15:12:39.104Z,72.43
2023-04-11T15:15:09.337Z,55.17
2023-04-11T15:17:43.492Z,63.82
2023-04-11T15:20:13.149Z,23.22
2023-04-11T15:22:44.228Z,34.19
2023-04-11T15:25:15.367Z,40.81
2023-04-11T15:27:43.319Z,64.37
2023-04-11T15:30:13.451Z,26.89
2023-04-11T15:32:42.743Z,30.31
2023-04-11T15:35:12.082Z,22.27
2023-04-11T15:37:39.753Z,19.92
2023-04-11T15:40:08.776Z,14.90
2023-04-11T15:42:36.534Z,28.66
2023-04-11T15:45:05.028Z,15.21
2023-04-11T15:47:32.947Z,11.79
2023-04-11T15:50:00.928Z,20.31
2023-04-11T15:52:30.271Z,15.13
2023-04-11T15:54:57.895Z,45.20
2023-04-11T15:57:26.112Z,23.31
2023-04-11T15:59:53.727Z,28.48
2023-04-11T16:02:21.400Z,29.01
2023-04-11T16:04:51.257Z,27.56
2023-04-11T16:07:20.977Z,21.09
2023-04-11T16:09:50.316Z,21.80
2023-04-11T16:12:20.121Z,30.52
2023-04-11T16:14:47.830Z,23.32
2023-04-11T16:17:15.786Z,22.77
2023-04-11T16:19:43.446Z,94.61
2023-04-11T16:22:11.093Z,26.03
2023-04-11T16:24:39.321Z,23.38
2023-04-11T16:27:08.321Z,30.29
2023-04-11T16:29:36.262Z,31.33
2023-04-11T16:32:04.095Z,31.03
2023-04-11T16:34:31.938Z,24.47
2023-04-11T16:37:00.255Z,28.41
2023-04-11T16:39:28.326Z,21.20
2023-04-11T16:41:57.540Z,20.82
2023-04-11T16:44:26.829Z,23.75
2023-04-11T16:46:54.450Z,22.33
2023-04-11T16:49:22.398Z,23.23
2023-04-11T16:51:50.425Z,35.84
2023-04-11T16:54:20.769Z,25.55
2023-04-11T16:56:48.571Z,28.37
2023-04-11T16:59:16.636Z,25.98
2023-04-11T17:01:46.454Z,28.45
2023-04-11T17:04:14.538Z,29.56
2023-04-11T17:06:42.185Z,34.04
2023-04-11T17:09:09.838Z,30.76
2023-04-11T17:11:37.903Z,31.53
2023-04-11T17:14:05.553Z,28.06
2023-04-11T17:16:34.352Z,25.16
2023-04-11T17:19:03.340Z,35.02
2023-04-11T17:21:32.256Z,45.97
2023-04-11T17:24:00.053Z,29.85
2023-04-11T17:26:27.924Z,25.66
2023-04-11T17:28:55.651Z,22.49
2023-04-11T17:31:23.308Z,22.66
2023-04-11T17:33:50.953Z,23.36
2023-04-11T17:36:22.107Z,34.41
2023-04-11T17:38:49.837Z,26.29
2023-04-11T17:41:17.557Z,27.24
2023-04-11T17:43:45.198Z,32.95
2023-04-11T17:46:13.208Z,31.71
2023-04-11T17:48:40.892Z,48.06
2023-04-11T17:51:08.481Z,47.58
2023-04-11T17:53:37.631Z,37.47
2023-04-11T17:56:06.267Z,48.38
2023-04-11T17:58:34.194Z,30.85
2023-04-11T18:01:01.874Z,34.63
2023-04-11T18:03:29.922Z,27.47
2023-04-11T18:05:58.791Z,30.68
2023-04-11T18:08:39.225Z,37.01
2023-04-11T18:11:17.609Z,29.38
2023-04-11T18:13:46.997Z,30.85
2023-04-11T18:16:16.085Z,40.07
2023-04-11T18:18:44.147Z,34.55
2023-04-11T18:21:11.751Z,40.09
2023-04-11T18:23:39.491Z,38.28
2023-04-11T18:26:07.191Z,32.71
2023-04-11T18:28:36.705Z,27.51
2023-04-11T18:31:04.591Z,29.46
2023-04-11T18:33:32.315Z,40.19
2023-04-11T18:36:00.483Z,40.54
2023-04-11T18:38:28.207Z,43.45
2023-04-11T18:40:57.018Z,31.16
2023-04-11T18:43:24.866Z,70.59
2023-04-11T18:45:53.993Z,40.04
2023-04-11T18:48:21.986Z,37.40
2023-04-11T18:50:57.972Z,40.33
2023-04-11T18:53:25.875Z,40.44
2023-04-11T18:55:53.648Z,39.23
2023-04-11T18:58:24.935Z,43.92
2023-04-11T19:00:55.412Z,67.62
2023-04-11T19:03:23.593Z,52.27
2023-04-11T19:05:51.677Z,52.41
2023-04-11T19:08:19.611Z,47.45
2023-04-11T19:10:47.359Z,47.85
2023-04-11T19:13:15.122Z,54.87
2023-04-11T19:15:42.792Z,62.75
2023-04-11T19:18:12.016Z,69.71
2023-04-11T19:20:39.889Z,62.05
2023-04-11T19:23:07.540Z,59.21
2023-04-11T19:25:35.305Z,89.84
2023-04-11T19:28:02.950Z,70.99
2023-04-11T19:30:30.759Z,57.99
2023-04-11T19:32:59.535Z,60.11
2023-04-11T19:35:28.649Z,60.98
2023-04-11T19:37:56.323Z,45.50
2023-04-11T19:40:23.933Z,59.11
2023-04-11T19:42:51.787Z,55.39
2023-04-11T19:45:19.853Z,58.14
2023-04-11T19:47:47.629Z,63.71
2023-04-11T19:50:15.345Z,66.00
2023-04-11T19:52:44.640Z,61.86
2023-04-11T19:55:14.651Z,68.39
2023-04-11T19:57:43.008Z,74.34
2023-04-11T20:00:12.895Z,73.61
2023-04-11T20:02:42.668Z,70.78
2023-04-11T20:05:10.889Z,69.78
2023-04-11T20:07:39.536Z,64.37
2023-04-11T20:10:09.952Z,74.50
2023-04-11T20:12:37.931Z,68.13
2023-04-11T20:15:06.856Z,67.65
2023-04-11T20:17:36.863Z,69.16
2023-04-11T20:20:05.413Z,206.82
2023-04-11T20:22:34.163Z,164.06
2023-04-11T20:25:01.784Z,70.73
2023-04-11T20:27:30.786Z,139.15
2023-04-11T20:29:58.453Z,78.96
2023-04-11T20:32:31.212Z,64.40
2023-04-11T20:35:00.358Z,66.04
2023-04-11T20:37:28.546Z,65.37
2023-04-11T20:39:56.234Z,61.74
2023-04-11T20:42:24.658Z,69.15
2023-04-11T20:44:54.463Z,67.90
2023-04-11T20:47:22.295Z,96.32
2023-04-11T20:49:50.013Z,62.67
2023-04-11T20:52:18.727Z,60.79
2023-04-11T20:54:46.444Z,62.21
2023-04-11T20:57:14.222Z,60.77
2023-04-11T20:59:41.831Z,63.02
2023-04-11T21:02:10.959Z,73.67
2023-04-11T21:04:38.729Z,69.32
2023-04-11T21:07:06.618Z,72.79
2023-04-11T21:09:34.234Z,75.95
2023-04-11T21:12:01.943Z,74.17
2023-04-11T21:14:29.703Z,69.08
2023-04-11T21:16:57.323Z,58.62
2023-04-11T21:19:26.347Z,64.53
2023-04-11T21:21:53.988Z,62.97
2023-04-11T21:24:21.686Z,74.29
2023-04-11T21:26:52.277Z,76.94
2023-04-11T21:29:20.010Z,64.51
2023-04-11T21:31:48.592Z,71.48
2023-04-11T21:34:16.257Z,67.86
2023-04-11T21:36:45.459Z,64.12
2023-04-11T21:39:13.388Z,55.25
2023-04-11T21:41:41.119Z,55.53
2023-04-11T21:44:08.892Z,57.63
2023-04-11T21:46:36.878Z,52.99
2023-04-11T21:49:04.611Z,61.27
2023-04-11T21:51:32.442Z,65.79
2023-04-11T21:54:03.423Z,66.65
2023-04-11T21:56:31.068Z,60.04
2023-04-11T21:58:58.798Z,68.20
2023-04-11T22:01:26.516Z,55.32
2023-04-11T22:03:54.414Z,52.66
2023-04-11T22:06:22.439Z,47.09
2023-04-11T22:08:50.166Z,47.08
2023-04-11T22:11:19.386Z,50.37
2023-04-11T22:13:47.708Z,45.79
2023-04-11T22:16:15.478Z,49.35
2023-04-11T22:18:43.313Z,46.34
2023-04-11T22:21:11.014Z,50.80
2023-04-11T22:23:38.638Z,56.73
2023-04-11T22:26:07.038Z,46.59
2023-04-11T22:28:36.027Z,49.93
2023-04-11T22:31:03.913Z,52.54
2023-04-11T22:33:31.958Z,55.32
2023-04-11T22:35:59.618Z,56.14
2023-04-11T22:38:27.205Z,56.90
2023-04-11T22:40:55.007Z,52.55
2023-04-11T22:43:22.708Z,64.51
2023-04-11T22:45:51.824Z,72.00
2023-04-11T22:48:19.753Z,69.11
2023-04-11T22:50:47.338Z,83.13
2023-04-11T22:53:15.242Z,77.92
2023-04-11T22:55:43.348Z,108.31
2023-04-11T22:58:10.989Z,80.49
2023-04-11T23:00:38.711Z,132.10
2023-04-11T23:03:07.797Z,79.90
2023-04-11T23:05:37.353Z,96.92
2023-04-11T23:08:05.507Z,137.30
2023-04-11T23:10:33.406Z,122.39
2023-04-11T23:13:01.262Z,135.22
2023-04-11T23:15:33.262Z,163.97
2023-04-11T23:18:01.008Z,126.00
2023-04-11T23:20:30.114Z,110.88
2023-04-11T23:22:57.765Z,127.42
2023-04-11T23:25:26.579Z,123.72
2023-04-11T23:27:54.211Z,127.59
2023-04-11T23:30:22.145Z,121.80
2023-04-11T23:32:49.947Z,153.71
2023-04-11T23:35:17.749Z,122.90
2023-04-11T23:37:46.753Z,133.63
2023-04-11T23:40:14.419Z,149.07
2023-04-11T23:42:42.061Z,164.30
2023-04-11T23:45:11.240Z,227.70
2023-04-11T23:47:38.948Z,196.41
2023-04-11T23:50:07.143Z,207.45
2023-04-11T23:52:34.834Z,178.88
2023-04-11T23:55:04.320Z,171.91
2023-04-11T23:57:33.046Z,165.45
